Airfield :
LOGIN :

Register | Disclaimer

   EN    FR    IT 

 










Legend :    VFR   Marginal VFR   IFR   Intensive IFR   Very Intensive IFR
Visi :
Ceiling :
>= 8 km
>= 3000ft
5 to 8 km
1000 to 3000 ft
1500m to 5 km
500 to 1000 ft
800 to 1500m
200 to 500 ft
< 800m
< 200 ft
Symbols :   Thunderstorms  Fog  Heavy snow  Heavy precipitations  Wind > 20 kt
SIGMETs :     Misc.  Thunderstorms  Icing  Turbulence  Mountain Waves  Volcanic Ashes






- Airport Elevation : 1367 ft
- IATA code : FDH


EDNY - Friedrichshafen

CURRENT METAR :
  • 121420Z VRB02KT 9999 FEW048 31/18 Q1015

EXPIRED METARs :
  • 121350Z 21006KT 9999 FEW048 30/18 Q1015
  • 121320Z 22005KT 9999 FEW048 30/18 Q1016
  • 121250Z VRB03KT 9999 FEW048 31/18 Q1016
  • 121220Z VRB02KT 9999 FEW048 31/18 Q1016
  • 121150Z VRB02KT CAVOK 30/19 Q1016

TAF TAF EDNY
Valid from the 12 at 12:00 until the 13 at 12:00 UTC


121100Z 1212/1312 VRB03KT CAVOK
TEMPO 1212/1216 23005KT
BECMG 1306/1308 24007KT
PROB30
TEMPO 1306/1310 25015G30KT TSRA FEW030 SCT050CB
PROB30
TEMPO 1310/1312 03005KT



MET'MAP, your aeronautical weather chart ! - Copyright ORBIFLY December 2007 - Disclaimer

ORBIFLY MET'MAP TEAM :

Programming & Development : Alexandra Zaïnal
Concept & original design : Baudouin d'Aumeries
Assistance for programming : Marc-Olivier Méhu
Technical & hardware support : Manuel Goepfert

Contact : metmap@orbifly.com




SOURCES & CREDITS :

   NOAA